Time;durP1;ratioP1;P1;durP2;ratioP2;P2;SDS_P1;SDS_P2;PMS_P1;PMS_P2;Temp;Humidity;BMP_temperature;BMP_pressure;BME280_temperature;BME280_humidity;BME280_pressure;Samples;Min_cycle;Max_cycle;Signal;HPM_P1;HPM_P2
2021/10/05 00:04:49;;;;;;;0.10;0.10;;;;;;;;;;10435060;28;20061;-66
2021/10/05 00:09:52;;;;;;;0.10;0.10;;;;;;;;;;10436706;28;20403;-66
2021/10/05 00:14:56;;;;;;;0.10;0.10;;;;;;;;;;10435625;28;20380;-66
2021/10/05 00:20:00;;;;;;;0.10;0.10;;;;;;;;;;10435480;28;20917;-66
2021/10/05 00:25:03;;;;;;;0.10;0.10;;;;;;;;;;10438604;28;20095;-66
2021/10/05 00:30:06;;;;;;;0.10;0.10;;;;;;;;;;10435526;28;20056;-66
2021/10/05 00:35:11;;;;;;;0.10;0.10;;;;;;;;;;10436167;28;20491;-66
2021/10/05 00:40:13;;;;;;;0.35;0.20;;;;;;;;;;10436123;28;20053;-66
2021/10/05 00:45:16;;;;;;;0.10;0.10;;;;;;;;;;10435338;28;20048;-66
2021/10/05 00:50:20;;;;;;;0.10;0.10;;;;;;;;;;10435470;28;20510;-66
2021/10/05 00:55:23;;;;;;;0.10;0.10;;;;;;;;;;10455451;28;20124;-66
2021/10/05 01:00:26;;;;;;;0.20;0.20;;;;;;;;;;10461361;28;20044;-66
2021/10/05 01:05:30;;;;;;;0.35;0.13;;;;;;;;;;10450505;28;20120;-65
2021/10/05 01:10:33;;;;;;;0.17;0.10;;;;;;;;;;10442719;28;20049;-66
2021/10/05 01:15:37;;;;;;;0.20;0.20;;;;;;;;;;10442992;28;20043;-64
2021/10/05 01:21:05;;;;;;;0.20;0.20;;;;;;;;;;10439685;28;20037;-64
2021/10/05 01:26:09;;;;;;;0.30;0.30;;;;;;;;;;10428476;28;20061;-64
2021/10/05 01:31:12;;;;;;;0.20;0.20;;;;;;;;;;10448205;28;20052;-64
2021/10/05 01:36:15;;;;;;;0.30;0.30;;;;;;;;;;10437103;28;20117;-65
2021/10/05 01:41:19;;;;;;;0.22;0.22;;;;;;;;;;10444197;28;20038;-65
2021/10/05 01:46:22;;;;;;;0.20;0.20;;;;;;;;;;10437219;28;20047;-64
2021/10/05 01:51:25;;;;;;;0.20;0.10;;;;;;;;;;10443702;28;20040;-65
2021/10/05 01:56:29;;;;;;;0.10;0.10;;;;;;;;;;10435756;28;20082;-65
2021/10/05 02:01:34;;;;;;;0.10;0.10;;;;;;;;;;10440052;28;20033;-64
2021/10/05 02:06:37;;;;;;;0.20;0.20;;;;;;;;;;10433623;28;20076;-65
2021/10/05 02:11:42;;;;;;;0.38;0.38;;;;;;;;;;10438085;28;20048;-64
2021/10/05 02:16:45;;;;;;;0.30;0.30;;;;;;;;;;10434458;28;20045;-64
2021/10/05 02:21:50;;;;;;;0.30;0.30;;;;;;;;;;10434570;28;20040;-64
2021/10/05 02:26:57;;;;;;;0.30;0.30;;;;;;;;;;10433663;28;20142;-64
2021/10/05 02:32:00;;;;;;;0.43;0.43;;;;;;;;;;10431605;28;20033;-64
2021/10/05 02:37:03;;;;;;;0.45;0.45;;;;;;;;;;10432578;28;20049;-65
2021/10/05 02:42:09;;;;;;;0.40;0.40;;;;;;;;;;10435323;28;20033;-64
2021/10/05 02:47:11;;;;;;;0.55;0.40;;;;;;;;;;10431974;28;20425;-64
2021/10/05 02:52:15;;;;;;;0.40;0.40;;;;;;;;;;10429772;28;20080;-64
2021/10/05 02:57:20;;;;;;;0.40;0.40;;;;;;;;;;10435451;28;20036;-64
2021/10/05 03:02:23;;;;;;;0.60;0.50;;;;;;;;;;10437275;28;20070;-64
2021/10/05 03:07:26;;;;;;;0.32;0.32;;;;;;;;;;10435401;28;20076;-64
2021/10/05 03:12:37;;;;;;;0.40;0.40;;;;;;;;;;10432205;28;20040;-64
2021/10/05 03:17:41;;;;;;;0.40;0.40;;;;;;;;;;10435014;28;20063;-64
2021/10/05 03:22:48;;;;;;;0.50;0.50;;;;;;;;;;10436010;28;20033;-64
2021/10/05 03:27:52;;;;;;;0.40;0.40;;;;;;;;;;10438086;28;20383;-65
2021/10/05 03:32:55;;;;;;;0.50;0.50;;;;;;;;;;10431917;28;20036;-65
2021/10/05 03:38:01;;;;;;;0.50;0.50;;;;;;;;;;10434152;28;20052;-65
2021/10/05 03:43:08;;;;;;;0.60;0.60;;;;;;;;;;10439613;28;20043;-66
2021/10/05 03:48:12;;;;;;;0.60;0.52;;;;;;;;;;10437808;28;20588;-65
2021/10/05 03:53:17;;;;;;;0.50;0.50;;;;;;;;;;10440302;28;20120;-64
2021/10/05 03:58:31;;;;;;;0.60;0.60;;;;;;;;;;10436920;28;20116;-64
2021/10/05 04:03:38;;;;;;;0.43;0.43;;;;;;;;;;10440129;28;20410;-64
2021/10/05 04:08:41;;;;;;;0.50;0.50;;;;;;;;;;10435936;28;20060;-64
2021/10/05 04:13:46;;;;;;;1.38;0.40;;;;;;;;;;10434140;28;20070;-64
2021/10/05 04:18:48;;;;;;;0.57;0.57;;;;;;;;;;10437769;28;20037;-64
2021/10/05 04:23:59;;;;;;;0.52;0.52;;;;;;;;;;10442843;28;20041;-63
2021/10/05 04:29:03;;;;;;;0.50;0.50;;;;;;;;;;10443973;28;20053;-64
2021/10/05 04:34:06;;;;;;;0.50;0.50;;;;;;;;;;10445907;28;20055;-63
2021/10/05 04:39:09;;;;;;;0.40;0.40;;;;;;;;;;10437568;28;20068;-63
2021/10/05 04:44:13;;;;;;;0.50;0.50;;;;;;;;;;10446749;28;20186;-65
2021/10/05 04:49:17;;;;;;;0.60;0.60;;;;;;;;;;10438279;28;20080;-64
2021/10/05 04:54:20;;;;;;;0.40;0.40;;;;;;;;;;10442879;28;20052;-64
2021/10/05 04:59:24;;;;;;;0.40;0.40;;;;;;;;;;10434606;28;20152;-64
2021/10/05 05:04:27;;;;;;;0.60;0.60;;;;;;;;;;10438161;28;20033;-64
2021/10/05 05:09:30;;;;;;;0.60;0.60;;;;;;;;;;10436568;28;20058;-64
2021/10/05 05:14:34;;;;;;;0.75;0.60;;;;;;;;;;10437622;28;20047;-63
2021/10/05 05:19:37;;;;;;;0.68;0.50;;;;;;;;;;10438678;28;20033;-64
2021/10/05 05:24:40;;;;;;;0.70;0.70;;;;;;;;;;10436133;28;20041;-63
2021/10/05 05:29:44;;;;;;;0.60;0.60;;;;;;;;;;10437336;28;20033;-65
2021/10/05 05:34:47;;;;;;;0.70;0.70;;;;;;;;;;10434286;28;20150;-65
2021/10/05 05:39:49;;;;;;;0.60;0.60;;;;;;;;;;10433880;28;20041;-65
2021/10/05 05:44:53;;;;;;;0.80;0.80;;;;;;;;;;10433324;28;20170;-64
2021/10/05 05:49:56;;;;;;;0.55;0.55;;;;;;;;;;10435720;28;20048;-66
2021/10/05 05:54:59;;;;;;;0.70;0.70;;;;;;;;;;10432601;28;20474;-63
2021/10/05 06:00:04;;;;;;;0.70;0.70;;;;;;;;;;10438778;28;20099;-62
2021/10/05 06:05:14;;;;;;;0.70;0.70;;;;;;;;;;10440329;28;20120;-63
2021/10/05 06:10:16;;;;;;;0.70;0.70;;;;;;;;;;10431869;28;20057;-63
2021/10/05 06:15:21;;;;;;;0.60;0.60;;;;;;;;;;10436638;28;20041;-63
2021/10/05 06:20:26;;;;;;;0.60;0.60;;;;;;;;;;10433785;28;20045;-64
2021/10/05 06:25:30;;;;;;;0.55;0.55;;;;;;;;;;10437024;28;20053;-64
2021/10/05 06:30:34;;;;;;;0.50;0.50;;;;;;;;;;10435128;28;20076;-65
2021/10/05 06:35:37;;;;;;;0.30;0.30;;;;;;;;;;10437075;28;20144;-65
2021/10/05 06:40:41;;;;;;;0.40;0.40;;;;;;;;;;10436407;28;20127;-66
2021/10/05 06:45:45;;;;;;;0.50;0.47;;;;;;;;;;10434191;28;20052;-66
2021/10/05 06:50:48;;;;;;;0.40;0.40;;;;;;;;;;10434874;28;20049;-66
2021/10/05 06:55:51;;;;;;;0.43;0.43;;;;;;;;;;10433137;28;20052;-66
2021/10/05 07:00:55;;;;;;;0.40;0.40;;;;;;;;;;10446345;28;20064;-67
2021/10/05 07:05:58;;;;;;;0.40;0.40;;;;;;;;;;10434716;28;20053;-68
2021/10/05 07:11:01;;;;;;;0.47;0.47;;;;;;;;;;10434700;28;20134;-69
2021/10/05 07:16:05;;;;;;;0.52;0.50;;;;;;;;;;10439430;28;20043;-69
2021/10/05 07:21:08;;;;;;;0.43;0.35;;;;;;;;;;10444688;28;20490;-69
2021/10/05 07:26:11;;;;;;;0.40;0.40;;;;;;;;;;10445734;28;20116;-69
2021/10/05 07:31:15;;;;;;;0.40;0.40;;;;;;;;;;10442666;28;20127;-69
2021/10/05 07:36:20;;;;;;;0.30;0.30;;;;;;;;;;10438696;28;20052;-70
2021/10/05 07:41:23;;;;;;;0.20;0.20;;;;;;;;;;10438854;28;20067;-70
2021/10/05 07:46:27;;;;;;;0.30;0.30;;;;;;;;;;10443341;28;20506;-67
2021/10/05 07:51:31;;;;;;;0.30;0.30;;;;;;;;;;10440778;28;20045;-66
2021/10/05 07:56:34;;;;;;;0.30;0.30;;;;;;;;;;10438980;28;20882;-67
2021/10/05 08:01:38;;;;;;;0.40;0.40;;;;;;;;;;10436298;28;20821;-67
2021/10/05 08:06:41;;;;;;;0.30;0.30;;;;;;;;;;10436130;28;20045;-67
2021/10/05 08:11:44;;;;;;;0.25;0.25;;;;;;;;;;10436254;28;20067;-68
2021/10/05 08:16:48;;;;;;;0.20;0.20;;;;;;;;;;10436459;28;20498;-67
2021/10/05 08:21:51;;;;;;;0.20;0.20;;;;;;;;;;10442631;28;20488;-68
2021/10/05 08:26:53;;;;;;;0.17;0.17;;;;;;;;;;10437013;28;20111;-67
2021/10/05 08:31:58;;;;;;;0.28;0.28;;;;;;;;;;10439090;28;20678;-67
2021/10/05 08:37:00;;;;;;;0.20;0.20;;;;;;;;;;10437589;28;20032;-69
2021/10/05 08:42:03;;;;;;;0.20;0.20;;;;;;;;;;10439056;28;20044;-66
2021/10/05 08:47:08;;;;;;;0.20;0.20;;;;;;;;;;10437909;28;20057;-66
2021/10/05 08:52:11;;;;;;;0.20;0.20;;;;;;;;;;10435448;28;20155;-67
2021/10/05 08:57:14;;;;;;;0.17;0.17;;;;;;;;;;10437073;28;20045;-65
2021/10/05 09:02:19;;;;;;;0.10;0.10;;;;;;;;;;10436174;28;20057;-66
2021/10/05 09:07:23;;;;;;;0.20;0.20;;;;;;;;;;10438060;28;20057;-65
2021/10/05 09:12:27;;;;;;;0.10;0.10;;;;;;;;;;10436650;28;20191;-67
2021/10/05 09:17:31;;;;;;;0.20;0.20;;;;;;;;;;10432143;28;20124;-67
2021/10/05 09:22:34;;;;;;;0.20;0.20;;;;;;;;;;10434198;28;20053;-67
2021/10/05 09:27:47;;;;;;;0.10;0.10;;;;;;;;;;10436086;28;20049;-67
2021/10/05 09:33:02;;;;;;;0.10;0.10;;;;;;;;;;10434794;28;20522;-67
2021/10/05 09:38:10;;;;;;;0.20;0.20;;;;;;;;;;10435206;28;20190;-67
2021/10/05 09:43:17;;;;;;;0.20;0.20;;;;;;;;;;10433493;28;20063;-68
2021/10/05 09:48:23;;;;;;;0.20;0.20;;;;;;;;;;10431668;28;20131;-68
2021/10/05 09:53:26;;;;;;;0.20;0.20;;;;;;;;;;10439390;28;20037;-67
2021/10/05 09:58:29;;;;;;;0.20;0.20;;;;;;;;;;10435362;28;20464;-67
2021/10/05 10:03:33;;;;;;;0.10;0.10;;;;;;;;;;10436269;28;20820;-67
2021/10/05 10:08:37;;;;;;;0.20;0.20;;;;;;;;;;10435152;28;21666;-67
2021/10/05 10:13:42;;;;;;;0.20;0.20;;;;;;;;;;10433042;28;20033;-69
2021/10/05 10:18:53;;;;;;;0.20;0.20;;;;;;;;;;10435705;28;20502;-71
2021/10/05 10:24:10;;;;;;;0.20;0.20;;;;;;;;;;10433594;28;20163;-68
2021/10/05 10:29:13;;;;;;;0.10;0.10;;;;;;;;;;10437975;28;20037;-68
2021/10/05 10:34:24;;;;;;;0.10;0.10;;;;;;;;;;10436652;28;20055;-68
2021/10/05 10:39:37;;;;;;;0.10;0.10;;;;;;;;;;10435567;28;20421;-68
2021/10/05 10:44:41;;;;;;;0.10;0.10;;;;;;;;;;10432221;28;20075;-67
2021/10/05 10:49:54;;;;;;;0.15;0.15;;;;;;;;;;10435019;28;20106;-67
2021/10/05 10:55:02;;;;;;;0.10;0.10;;;;;;;;;;10440529;28;20045;-67
2021/10/05 11:00:13;;;;;;;0.10;0.10;;;;;;;;;;10440423;28;20103;-67
2021/10/05 11:05:20;;;;;;;0.10;0.10;;;;;;;;;;10440452;28;20052;-67
2021/10/05 11:10:24;;;;;;;0.10;0.10;;;;;;;;;;10437809;28;20052;-67
2021/10/05 11:15:31;;;;;;;0.10;0.10;;;;;;;;;;10439807;28;20837;-68
2021/10/05 11:20:37;;;;;;;0.20;0.20;;;;;;;;;;10437564;28;20051;-67
2021/10/05 11:25:45;;;;;;;0.10;0.10;;;;;;;;;;10441799;28;20143;-68
2021/10/05 11:30:49;;;;;;;0.10;0.10;;;;;;;;;;10439166;28;20059;-68
2021/10/05 11:35:54;;;;;;;0.10;0.10;;;;;;;;;;10434068;28;20044;-68
2021/10/05 11:40:57;;;;;;;0.10;0.10;;;;;;;;;;10440678;28;20047;-69
2021/10/05 11:46:05;;;;;;;0.15;0.15;;;;;;;;;;10436244;28;20497;-67
2021/10/05 11:51:10;;;;;;;0.10;0.10;;;;;;;;;;10437627;28;20045;-67
2021/10/05 11:56:13;;;;;;;0.00;0.00;;;;;;;;;;10438915;28;20068;-67
2021/10/05 12:01:17;;;;;;;0.20;0.10;;;;;;;;;;10440584;28;20151;-68
2021/10/05 12:06:32;;;;;;;0.00;0.00;;;;;;;;;;10440294;28;20037;-68
2021/10/05 12:11:39;;;;;;;0.10;0.10;;;;;;;;;;10439016;28;20128;-67
2021/10/05 12:16:42;;;;;;;0.00;0.00;;;;;;;;;;10435208;28;20206;-68
2021/10/05 12:21:52;;;;;;;0.03;0.03;;;;;;;;;;10437738;28;20425;-67
2021/10/05 12:26:55;;;;;;;0.08;0.08;;;;;;;;;;10441429;28;20041;-68
2021/10/05 12:32:04;;;;;;;0.10;0.10;;;;;;;;;;10434378;28;20076;-68
2021/10/05 12:37:09;;;;;;;0.10;0.10;;;;;;;;;;10435752;28;20460;-67
2021/10/05 12:42:40;;;;;;;0.05;0.05;;;;;;;;;;10432204;28;20045;-67
2021/10/05 12:47:52;;;;;;;0.10;0.10;;;;;;;;;;10435847;28;20041;-67
2021/10/05 12:52:58;;;;;;;0.10;0.10;;;;;;;;;;10435186;28;20139;-68
2021/10/05 12:58:03;;;;;;;0.10;0.10;;;;;;;;;;10442543;28;20818;-68
2021/10/05 13:03:07;;;;;;;0.00;0.00;;;;;;;;;;10438469;28;20055;-68
2021/10/05 13:08:12;;;;;;;0.10;0.10;;;;;;;;;;10438519;28;20063;-68
2021/10/05 13:13:15;;;;;;;0.03;0.03;;;;;;;;;;10437072;28;20048;-67
2021/10/05 13:18:18;;;;;;;0.10;0.10;;;;;;;;;;10434397;28;20090;-67
2021/10/05 13:23:22;;;;;;;0.00;0.00;;;;;;;;;;10428265;28;20152;-67
2021/10/05 13:28:25;;;;;;;0.00;0.00;;;;;;;;;;10445854;28;20545;-67
2021/10/05 13:33:28;;;;;;;0.00;0.00;;;;;;;;;;10439343;28;20466;-68
2021/10/05 13:38:33;;;;;;;0.00;0.00;;;;;;;;;;10436719;28;20072;-66
2021/10/05 13:43:35;;;;;;;0.00;0.00;;;;;;;;;;10434889;28;20051;-67
2021/10/05 13:48:38;;;;;;;0.00;0.00;;;;;;;;;;10431986;28;20041;-65
2021/10/05 13:53:46;;;;;;;0.00;0.00;;;;;;;;;;10433325;28;20517;-68
2021/10/05 13:58:49;;;;;;;0.32;0.10;;;;;;;;;;10435093;28;20045;-69
2021/10/05 14:03:54;;;;;;;0.00;0.00;;;;;;;;;;10434672;28;20211;-72
2021/10/05 14:09:00;;;;;;;0.08;0.08;;;;;;;;;;10431683;28;20052;-69
2021/10/05 14:14:03;;;;;;;0.00;0.00;;;;;;;;;;10432996;28;20155;-69
2021/10/05 14:19:09;;;;;;;0.00;0.00;;;;;;;;;;10449693;28;20076;-70
2021/10/05 14:24:14;;;;;;;0.00;0.00;;;;;;;;;;10445485;28;20190;-67
2021/10/05 14:29:17;;;;;;;0.00;0.00;;;;;;;;;;10436456;28;20041;-71
2021/10/05 14:34:20;;;;;;;0.00;0.00;;;;;;;;;;10430222;28;20060;-69
2021/10/05 14:39:24;;;;;;;0.00;0.00;;;;;;;;;;10432104;28;20059;-70
2021/10/05 14:44:27;;;;;;;0.00;0.00;;;;;;;;;;10430086;28;20061;-67
2021/10/05 14:49:29;;;;;;;0.00;0.00;;;;;;;;;;10433071;28;20128;-67
2021/10/05 14:54:52;;;;;;;0.00;0.00;;;;;;;;;;10429777;28;20055;-67
2021/10/05 14:59:55;;;;;;;0.10;0.10;;;;;;;;;;10427553;28;20136;-65
2021/10/05 15:04:58;;;;;;;0.00;0.00;;;;;;;;;;10434448;28;20142;-65
2021/10/05 15:10:03;;;;;;;0.00;0.00;;;;;;;;;;10436355;28;20044;-65
2021/10/05 15:15:08;;;;;;;0.00;0.00;;;;;;;;;;10437534;28;20171;-67
2021/10/05 15:20:12;;;;;;;0.00;0.00;;;;;;;;;;10433607;28;20427;-66
2021/10/05 15:25:16;;;;;;;0.00;0.00;;;;;;;;;;10432187;28;20033;-65
2021/10/05 15:30:19;;;;;;;0.00;0.00;;;;;;;;;;10432027;28;20119;-66
2021/10/05 15:35:24;;;;;;;0.00;0.00;;;;;;;;;;10431855;28;20155;-65
2021/10/05 15:40:28;;;;;;;0.05;0.05;;;;;;;;;;10437218;28;20128;-67
2021/10/05 15:45:32;;;;;;;0.00;0.00;;;;;;;;;;10435225;28;20187;-68
2021/10/05 15:50:41;;;;;;;0.45;0.10;;;;;;;;;;10434247;28;20048;-65
2021/10/05 15:55:47;;;;;;;0.10;0.10;;;;;;;;;;10435630;28;20080;-65
2021/10/05 16:00:50;;;;;;;0.00;0.00;;;;;;;;;;10442579;28;20106;-66
2021/10/05 16:05:55;;;;;;;0.00;0.00;;;;;;;;;;10446631;28;20041;-66
2021/10/05 16:10:59;;;;;;;0.10;0.10;;;;;;;;;;10443776;28;20057;-64
2021/10/05 16:16:02;;;;;;;0.10;0.10;;;;;;;;;;10442114;28;20875;-65
2021/10/05 16:21:05;;;;;;;0.10;0.10;;;;;;;;;;10443858;28;20487;-65
2021/10/05 16:26:09;;;;;;;0.00;0.00;;;;;;;;;;10436681;28;20827;-66
2021/10/05 16:31:12;;;;;;;0.03;0.03;;;;;;;;;;10435855;28;20053;-65
2021/10/05 16:36:15;;;;;;;0.10;0.10;;;;;;;;;;10415598;28;20104;-66
2021/10/05 16:41:19;;;;;;;0.00;0.00;;;;;;;;;;10395855;28;20051;-65
2021/10/05 16:46:22;;;;;;;0.03;0.03;;;;;;;;;;10391947;28;20562;-67
2021/10/05 16:51:25;;;;;;;0.03;0.03;;;;;;;;;;10393290;28;20419;-65
2021/10/05 16:56:53;;;;;;;0.10;0.10;;;;;;;;;;10386276;28;20069;-65
2021/10/05 17:01:57;;;;;;;0.00;0.00;;;;;;;;;;10388445;28;20038;-64
2021/10/05 17:07:00;;;;;;;0.00;0.00;;;;;;;;;;10388887;28;20046;-63
2021/10/05 17:12:03;;;;;;;0.00;0.00;;;;;;;;;;10390613;28;20492;-63
2021/10/05 17:17:07;;;;;;;0.00;0.00;;;;;;;;;;10392751;28;20128;-66
2021/10/05 17:22:10;;;;;;;0.10;0.10;;;;;;;;;;10395505;28;20136;-65
2021/10/05 17:27:17;;;;;;;0.08;0.08;;;;;;;;;;10390218;28;20053;-64
2021/10/05 17:32:21;;;;;;;0.10;0.10;;;;;;;;;;10395567;28;20076;-65
2021/10/05 17:37:24;;;;;;;0.15;0.08;;;;;;;;;;10392347;28;20056;-66
2021/10/05 17:42:26;;;;;;;0.10;0.10;;;;;;;;;;10393015;28;20042;-66
2021/10/05 17:47:30;;;;;;;0.00;0.00;;;;;;;;;;10391964;28;20867;-66
2021/10/05 17:52:34;;;;;;;0.00;0.00;;;;;;;;;;10389468;28;20045;-65
2021/10/05 17:57:36;;;;;;;0.00;0.00;;;;;;;;;;10389408;28;20064;-64
2021/10/05 18:02:41;;;;;;;0.10;0.10;;;;;;;;;;10390694;28;20060;-64
2021/10/05 18:07:44;;;;;;;0.10;0.10;;;;;;;;;;10389614;28;20516;-64
2021/10/05 18:12:48;;;;;;;0.10;0.10;;;;;;;;;;10386615;28;20052;-62
2021/10/05 18:17:52;;;;;;;0.10;0.10;;;;;;;;;;10392070;28;20052;-68
2021/10/05 18:22:55;;;;;;;0.10;0.10;;;;;;;;;;10393032;28;21068;-68
2021/10/05 18:28:08;;;;;;;0.10;0.10;;;;;;;;;;10388586;28;20511;-69
2021/10/05 18:33:13;;;;;;;0.00;0.00;;;;;;;;;;10390134;28;20770;-68
2021/10/05 18:38:15;;;;;;;0.08;0.08;;;;;;;;;;10400559;28;20045;-69
2021/10/05 18:43:18;;;;;;;0.10;0.10;;;;;;;;;;10389747;28;20411;-69
2021/10/05 18:48:22;;;;;;;0.00;0.00;;;;;;;;;;10384074;28;20034;-68
2021/10/05 18:53:25;;;;;;;0.05;0.05;;;;;;;;;;10382415;28;20047;-67
2021/10/05 18:58:30;;;;;;;0.10;0.10;;;;;;;;;;10384829;28;20058;-67
2021/10/05 19:03:34;;;;;;;0.10;0.10;;;;;;;;;;10385241;28;20140;-68
2021/10/05 19:08:37;;;;;;;0.10;0.10;;;;;;;;;;10385739;28;20132;-67
2021/10/05 19:13:46;;;;;;;0.00;0.00;;;;;;;;;;10392146;28;20049;-68
2021/10/05 19:18:51;;;;;;;0.00;0.00;;;;;;;;;;10394789;28;20030;-66
2021/10/05 19:23:55;;;;;;;0.08;0.08;;;;;;;;;;10392866;28;20144;-65
2021/10/05 19:28:58;;;;;;;0.10;0.10;;;;;;;;;;10391839;28;20048;-66
2021/10/05 19:34:05;;;;;;;0.00;0.00;;;;;;;;;;10394269;28;20041;-64
2021/10/05 19:39:09;;;;;;;0.08;0.03;;;;;;;;;;10391256;28;20080;-65
2021/10/05 19:44:12;;;;;;;0.10;0.10;;;;;;;;;;10386134;28;20045;-65
2021/10/05 19:49:16;;;;;;;0.03;0.03;;;;;;;;;;10379979;28;20048;-65
2021/10/05 19:54:19;;;;;;;0.00;0.00;;;;;;;;;;10378692;28;20041;-64
2021/10/05 19:59:22;;;;;;;0.10;0.10;;;;;;;;;;10387870;28;20037;-66
2021/10/05 20:04:27;;;;;;;0.10;0.10;;;;;;;;;;10386435;28;20135;-71
2021/10/05 20:09:30;;;;;;;0.00;0.00;;;;;;;;;;10390794;28;20063;-69
2021/10/05 20:14:35;;;;;;;0.10;0.10;;;;;;;;;;10381732;28;20061;-73
2021/10/05 20:19:39;;;;;;;0.10;0.10;;;;;;;;;;10387296;28;20041;-65
2021/10/05 20:24:46;;;;;;;0.10;0.10;;;;;;;;;;10388052;28;20053;-72
2021/10/05 20:29:49;;;;;;;0.10;0.10;;;;;;;;;;10389655;28;20041;-73
2021/10/05 20:34:54;;;;;;;0.10;0.10;;;;;;;;;;10392961;28;20108;-70
2021/10/05 20:39:56;;;;;;;0.08;0.08;;;;;;;;;;10391347;28;20100;-67
2021/10/05 20:44:59;;;;;;;0.00;0.00;;;;;;;;;;10389320;28;20488;-67
2021/10/05 20:50:04;;;;;;;0.20;0.10;;;;;;;;;;10388140;28;20564;-65
2021/10/05 20:55:08;;;;;;;0.10;0.10;;;;;;;;;;10387067;28;20068;-68
2021/10/05 21:00:11;;;;;;;0.10;0.10;;;;;;;;;;10388935;28;20045;-68
2021/10/05 21:05:15;;;;;;;0.10;0.10;;;;;;;;;;10388578;28;20060;-68
2021/10/05 21:10:18;;;;;;;0.10;0.10;;;;;;;;;;10386597;28;20064;-68
2021/10/05 21:15:21;;;;;;;0.00;0.00;;;;;;;;;;10388251;28;20041;-68
2021/10/05 21:20:25;;;;;;;0.00;0.00;;;;;;;;;;10396647;28;20893;-66
2021/10/05 21:25:28;;;;;;;0.00;0.00;;;;;;;;;;10397773;28;20047;-68
2021/10/05 21:30:31;;;;;;;0.10;0.10;;;;;;;;;;10386220;28;20057;-68
2021/10/05 21:35:35;;;;;;;0.00;0.00;;;;;;;;;;10389050;28;20037;-67
2021/10/05 21:40:38;;;;;;;0.10;0.10;;;;;;;;;;10389616;28;20494;-68
2021/10/05 21:45:43;;;;;;;0.10;0.10;;;;;;;;;;10387848;28;20403;-68
2021/10/05 21:50:47;;;;;;;0.10;0.10;;;;;;;;;;10389995;28;20377;-68
2021/10/05 21:55:50;;;;;;;0.00;0.00;;;;;;;;;;10382973;28;20061;-68
2021/10/05 22:00:52;;;;;;;0.10;0.10;;;;;;;;;;10384136;28;20488;-67
2021/10/05 22:05:57;;;;;;;0.10;0.10;;;;;;;;;;10378181;28;20037;-68
2021/10/05 22:10:59;;;;;;;0.10;0.10;;;;;;;;;;10483531;28;20048;-68
2021/10/05 22:16:04;;;;;;;0.10;0.10;;;;;;;;;;10460585;28;20055;-67
2021/10/05 22:21:10;;;;;;;0.10;0.10;;;;;;;;;;10478116;28;20906;-68
2021/10/05 22:26:13;;;;;;;0.03;0.03;;;;;;;;;;10480926;28;20079;-68
2021/10/05 22:31:16;;;;;;;0.10;0.10;;;;;;;;;;10484220;28;20040;-67
2021/10/05 22:36:23;;;;;;;0.10;0.10;;;;;;;;;;10484199;28;20136;-68
2021/10/05 22:41:25;;;;;;;0.00;0.00;;;;;;;;;;10486809;28;20094;-67
2021/10/05 22:46:28;;;;;;;0.10;0.10;;;;;;;;;;10487418;28;20127;-67
2021/10/05 22:51:32;;;;;;;0.10;0.10;;;;;;;;;;10488019;28;20088;-68
2021/10/05 22:56:36;;;;;;;0.10;0.10;;;;;;;;;;10462632;28;20054;-67
2021/10/05 23:01:39;;;;;;;0.10;0.10;;;;;;;;;;10465544;28;20533;-67
2021/10/05 23:06:43;;;;;;;0.10;0.10;;;;;;;;;;10458253;28;20067;-67
2021/10/05 23:11:46;;;;;;;0.00;0.00;;;;;;;;;;10462869;28;20036;-67
2021/10/05 23:16:49;;;;;;;0.10;0.10;;;;;;;;;;10460582;28;20059;-68
2021/10/05 23:21:53;;;;;;;0.10;0.10;;;;;;;;;;10465084;28;20064;-67
2021/10/05 23:26:56;;;;;;;0.10;0.10;;;;;;;;;;10466238;28;20043;-68
2021/10/05 23:31:58;;;;;;;0.10;0.10;;;;;;;;;;10452930;28;20040;-68
2021/10/05 23:37:03;;;;;;;0.03;0.03;;;;;;;;;;10448045;28;20039;-68
2021/10/05 23:42:05;;;;;;;0.10;0.10;;;;;;;;;;10466935;28;20047;-68
2021/10/05 23:47:08;;;;;;;0.55;0.30;;;;;;;;;;10463419;28;20849;-68
2021/10/05 23:52:12;;;;;;;0.28;0.10;;;;;;;;;;10449912;28;20528;-68
2021/10/05 23:57:15;;;;;;;0.10;0.10;;;;;;;;;;10456748;28;20049;-67
